Gillette, WY (82716)

2:42 PM MDT on July 26, 2016 (GMT -0600)
Gillette-Campbell County | | Change Station

Elev 4364 ft 44.34 °N, 105.54 °W | Updated 49 minutes ago

Clear
Clear
89 °F
Feels Like 89 °F
N
14
Wind Variable Wind from North
Gusts 21 mph

Today
High -- | Low -- °F
--% Chance of Precip.
Yesterday
High -- | Low -- °F
Precip. -- in
Pressure 29.91 in
Visibility 10.0 miles
Clouds Clear
Dew Point 44 °F
Humidity 21%
Rainfall 0.00 in
Snow Depth Not available.
5:43 AM 8:34 PM
Waning Gibbous, 51% visible
METAR KGCC 261953Z AUTO 01012G18KT 10SM CLR 32/07 A3009 RMK AO2 SLP129 T03170067
Pressure 29.91 in
Visibility 10.0 miles
Clouds Clear
Dew Point 44 °F
Humidity 21%
Rainfall 0.00 in
Snow Depth Not available.
5:43 AM 8:34 PM
Waning Gibbous, 51% visible
METAR KGCC 261953Z AUTO 01012G18KT 10SM CLR 32/07 A3009 RMK AO2 SLP129 T03170067

10-Day Weather Forecast

Almanac

Astronomy

Jul. 26, 2016 Rise Set
Actual Time
Civil Twilight
Nautical Twilight
Astronomical Twilight
Moon
Length of Visible Light
Length of Day
Tomorrow will be .
, % of the Moon is Illuminated

Today's Extremes

State Highs State Lows

Community

WunderPhotos

Upload Photos

1,927,678 photos uploaded!

WunderBlog® & News

Nearby

Air Quality

  Air Quality AQ Index Pollutant
Not available.

Snow Depth

Station Depth Elevation

Earthquake Activity

City Distance Mag. Time & Date
Minimum magnitude displayed is 2.5.

Coastal Water Temperatures

Place Temperature

Stations

Nearby Weather Stations

Station Location Temp. Windchill Dew Point Humidity Wind Precip. Elev Updated Type
                   

Watches & Warnings

There are currently no watches in effect.